Time;durP1;ratioP1;P1;durP2;ratioP2;P2;SDS_P1;SDS_P2;PMS_P1;PMS_P2;Temp;Humidity;BMP_temperature;BMP_pressure;BME280_temperature;BME280_humidity;BME280_pressure;Samples;Min_cycle;Max_cycle;Signal;HPM_P1;HPM_P2
2022/06/27 00:00:45;;;;;;;5.97;2.80;;;20.00;99.90;;;;;;4936525;29;20035;-82
2022/06/27 00:03:11;;;;;;;4.40;2.70;;;20.00;99.90;;;;;;4936782;29;20125;-82
2022/06/27 00:05:37;;;;;;;6.80;2.50;;;20.00;99.90;;;;;;4936482;29;20488;-82
2022/06/27 00:08:04;;;;;;;5.22;2.75;;;20.00;99.90;;;;;;4936506;29;20052;-82
2022/06/27 00:10:29;;;;;;;5.85;2.67;;;20.00;99.90;;;;;;4936511;29;20131;-83
2022/06/27 00:12:55;;;;;;;4.95;2.95;;;20.00;99.90;;;;;;4936434;29;20106;-82
2022/06/27 00:15:22;;;;;;;5.38;2.63;;;20.00;99.90;;;;;;4936434;29;20437;-82
2022/06/27 00:17:47;;;;;;;6.55;3.10;;;20.00;99.90;;;;;;4936247;29;20116;-82
2022/06/27 00:20:13;;;;;;;4.70;2.97;;;20.00;99.90;;;;;;4936269;29;20028;-82
2022/06/27 00:22:39;;;;;;;13.05;3.15;;;20.00;99.90;;;;;;4935579;29;20091;-82
2022/06/27 00:25:06;;;;;;;4.85;2.88;;;20.00;99.90;;;;;;4935728;29;20032;-82
2022/06/27 00:27:32;;;;;;;6.18;3.42;;;20.00;99.90;;;;;;4936170;29;20107;-82
2022/06/27 00:29:58;;;;;;;5.43;3.13;;;20.00;99.90;;;;;;4935956;29;20039;-82
2022/06/27 00:32:24;;;;;;;5.85;3.05;;;20.00;99.90;;;;;;4936040;29;20032;-82
2022/06/27 00:34:51;;;;;;;4.45;3.05;;;20.00;99.90;;;;;;4950932;29;20555;-82
2022/06/27 00:37:17;;;;;;;5.72;3.08;;;20.00;99.90;;;;;;4950519;29;20074;-82
2022/06/27 00:39:43;;;;;;;6.68;3.63;;;20.00;99.90;;;;;;4950576;29;20028;-82
2022/06/27 00:42:08;;;;;;;4.63;3.03;;;20.00;99.90;;;;;;4936002;29;20131;-82
2022/06/27 00:44:39;;;;;;;5.70;3.08;;;20.00;99.90;;;;;;4934795;29;20519;-82
2022/06/27 00:47:07;;;;;;;4.80;3.00;;;20.00;99.90;;;;;;4935870;29;20054;-82
2022/06/27 00:49:34;;;;;;;6.03;3.72;;;20.00;99.90;;;;;;4950338;29;20036;-82
2022/06/27 00:52:02;;;;;;;5.72;3.90;;;19.90;99.90;;;;;;4935466;29;20433;-82
2022/06/27 00:54:30;;;;;;;5.47;3.22;;;19.90;99.90;;;;;;4918907;29;20050;-82
2022/06/27 00:56:55;;;;;;;4.32;3.65;;;19.90;99.90;;;;;;4934279;29;20107;-82
2022/06/27 00:59:21;;;;;;;6.25;3.67;;;19.90;99.90;;;;;;4935440;29;20504;-82
2022/06/27 01:01:47;;;;;;;6.05;3.70;;;19.90;99.90;;;;;;4935604;29;20023;-82
2022/06/27 01:04:14;;;;;;;5.13;3.33;;;19.90;99.90;;;;;;4935552;29;20043;-82
2022/06/27 01:06:40;;;;;;;5.30;3.70;;;19.90;99.90;;;;;;4934034;29;20032;-82
2022/06/27 01:09:05;;;;;;;7.30;4.57;;;19.90;99.90;;;;;;4935372;29;20043;-82
2022/06/27 01:11:32;;;;;;;8.13;4.45;;;19.90;99.90;;;;;;4934037;29;20028;-82
2022/06/27 01:13:58;;;;;;;6.78;4.35;;;19.90;99.90;;;;;;4934304;29;20027;-82
2022/06/27 01:16:24;;;;;;;8.63;5.05;;;19.90;99.90;;;;;;4935658;29;20481;-82
2022/06/27 01:18:50;;;;;;;7.57;4.88;;;19.80;99.90;;;;;;4949751;29;20536;-82
2022/06/27 01:21:24;;;;;;;8.30;4.88;;;19.80;99.90;;;;;;4934042;29;20031;-82
2022/06/27 01:23:51;;;;;;;8.25;5.55;;;19.80;99.90;;;;;;4935383;29;20032;-82
2022/06/27 01:26:20;;;;;;;6.45;4.43;;;19.80;99.90;;;;;;4933990;29;20114;-82
2022/06/27 01:28:49;;;;;;;8.98;5.82;;;19.80;99.90;;;;;;4933656;29;20032;-82
2022/06/27 01:31:15;;;;;;;7.63;5.47;;;19.80;99.90;;;;;;4933879;29;20028;-82
2022/06/27 01:33:42;;;;;;;9.35;5.78;;;19.80;99.90;;;;;;4949752;29;20027;-82
2022/06/27 01:38:54;;;;;;;9.50;5.30;;;19.80;99.90;;;;;;4949551;29;20063;-82
2022/06/27 01:41:22;;;;;;;7.38;5.45;;;19.70;99.90;;;;;;4933589;29;20035;-82
2022/06/27 01:43:48;;;;;;;8.50;5.75;;;19.70;99.90;;;;;;4949466;29;20038;-82
2022/06/27 01:46:16;;;;;;;8.00;6.28;;;19.80;99.90;;;;;;4933538;29;20042;-82
2022/06/27 01:48:42;;;;;;;6.30;5.22;;;19.80;99.90;;;;;;4949379;29;20035;-83
2022/06/27 01:51:09;;;;;;;7.00;5.20;;;19.70;99.90;;;;;;4933365;29;20092;-82
2022/06/27 01:53:38;;;;;;;6.47;4.63;;;19.70;99.90;;;;;;4949284;29;20027;-82
2022/06/27 01:56:05;;;;;;;6.97;4.88;;;19.80;99.90;;;;;;4933170;29;20031;-82
2022/06/27 01:58:36;;;;;;;6.97;4.70;;;19.70;99.90;;;;;;4933648;29;20033;-82
2022/06/27 02:01:04;;;;;;;7.65;4.35;;;19.70;99.90;;;;;;4949429;29;20040;-82
2022/06/27 02:03:30;;;;;;;6.85;5.13;;;19.70;99.90;;;;;;4933194;29;20167;-82
2022/06/27 02:05:57;;;;;;;9.20;5.57;;;19.70;99.90;;;;;;4949156;29;20185;-83
2022/06/27 02:08:24;;;;;;;10.57;5.68;;;19.70;99.90;;;;;;4949116;29;20028;-82
2022/06/27 02:10:50;;;;;;;9.00;5.82;;;19.70;99.90;;;;;;4933906;29;20050;-82
2022/06/27 02:13:16;;;;;;;7.20;4.93;;;19.70;99.90;;;;;;4932872;29;20040;-82
2022/06/27 02:16:21;;;;;;;8.32;5.68;;;19.70;99.90;;;;;;4932815;29;20166;-82
2022/06/27 02:18:48;;;;;;;9.13;5.65;;;19.60;99.90;;;;;;4881197;29;20035;-83
2022/06/27 02:21:20;;;;;;;8.75;5.43;;;19.70;99.90;;;;;;4896808;29;20422;-82
2022/06/27 02:23:47;;;;;;;8.23;5.05;;;19.70;99.90;;;;;;4914248;29;20047;-82
2022/06/27 02:26:15;;;;;;;6.57;4.40;;;19.60;99.90;;;;;;4932968;29;20066;-82
2022/06/27 02:28:42;;;;;;;8.05;6.03;;;19.70;99.90;;;;;;4932588;29;20038;-82
2022/06/27 02:31:10;;;;;;;8.15;5.65;;;19.60;99.90;;;;;;4933883;29;20028;-82
2022/06/27 02:33:41;;;;;;;10.70;6.03;;;19.70;99.90;;;;;;4934031;29;20499;-82
2022/06/27 02:36:09;;;;;;;7.72;5.22;;;19.60;99.90;;;;;;4933834;29;20320;-83
2022/06/27 02:38:36;;;;;;;7.13;5.40;;;19.60;99.90;;;;;;4933715;29;20119;-82
2022/06/27 02:41:07;;;;;;;9.15;6.13;;;19.60;99.90;;;;;;4932632;29;20556;-82
2022/06/27 02:43:34;;;;;;;9.93;6.03;;;19.60;99.90;;;;;;4932619;29;20035;-82
2022/06/27 02:46:02;;;;;;;;;;;19.60;99.90;;;;;;4932475;29;20397;-82
2022/06/27 02:48:31;;;;;;;8.68;5.38;;;19.60;99.90;;;;;;4948293;29;19910;-82
2022/06/27 02:51:01;;;;;;;12.82;6.05;;;19.60;99.90;;;;;;4933746;29;20369;-82
2022/06/27 02:53:33;;;;;;;10.38;6.75;;;19.50;99.90;;;;;;4932570;29;20043;-82
2022/06/27 02:56:20;;;;;;;13.50;6.28;;;19.50;99.90;;;;;;4932331;29;20032;-82
2022/06/27 02:59:26;;;;;;;12.57;7.32;;;19.50;99.90;;;;;;4932206;29;20094;-82
2022/06/27 03:01:55;;;;;;;9.52;6.25;;;19.50;99.90;;;;;;4933683;29;20452;-82
2022/06/27 03:04:29;;;;;;;9.90;6.38;;;19.50;99.90;;;;;;4932432;29;20032;-82
2022/06/27 03:06:55;;;;;;;11.20;6.15;;;19.50;99.90;;;;;;4933472;29;20046;-83
2022/06/27 03:09:21;;;;;;;9.63;5.78;;;19.40;99.90;;;;;;4948116;29;20036;-82
2022/06/27 03:11:48;;;;;;;10.38;6.93;;;19.40;99.90;;;;;;4948086;29;20043;-83
2022/06/27 03:14:16;;;;;;;9.15;6.40;;;19.50;99.90;;;;;;4932421;29;20032;-82
2022/06/27 03:16:43;;;;;;;11.65;6.95;;;19.40;99.90;;;;;;4932216;29;20030;-82
2022/06/27 03:19:09;;;;;;;10.20;6.00;;;19.40;99.90;;;;;;4932380;29;20028;-82
2022/06/27 03:21:46;;;;;;;8.48;5.00;;;19.40;99.90;;;;;;5052776;23;20033;-69
2022/06/27 03:24:13;;;;;;;8.77;6.38;;;19.40;99.90;;;;;;4990383;28;20027;-69
2022/06/27 03:26:42;;;;;;;8.05;5.28;;;19.40;99.90;;;;;;4991413;28;20069;-69
2022/06/27 03:29:09;;;;;;;8.77;5.30;;;19.40;99.90;;;;;;4974412;28;20022;-70
2022/06/27 03:31:37;;;;;;;8.05;5.45;;;19.50;99.90;;;;;;4986993;28;20381;-69
2022/06/27 03:34:06;;;;;;;7.68;5.20;;;19.50;99.90;;;;;;4970903;28;20496;-69
2022/06/27 03:36:38;;;;;;;6.65;4.70;;;19.50;99.90;;;;;;4986765;28;20451;-69
2022/06/27 03:39:04;;;;;;;8.18;5.72;;;19.50;99.90;;;;;;4970639;28;20360;-69
2022/06/27 03:41:31;;;;;;;7.43;5.05;;;19.50;99.90;;;;;;4970535;28;20620;-69
2022/06/27 03:43:58;;;;;;;6.80;4.78;;;19.50;99.90;;;;;;4970509;28;20062;-69
2022/06/27 03:46:24;;;;;;;6.13;4.30;;;19.50;99.90;;;;;;4986632;28;20038;-69
2022/06/27 03:51:50;;;;;;;7.13;4.60;;;19.50;99.90;;;;;;4970452;28;20472;-69
2022/06/27 03:54:16;;;;;;;7.70;4.47;;;19.50;99.90;;;;;;4970635;28;20085;-69
2022/06/27 03:56:43;;;;;;;6.53;3.92;;;19.50;99.90;;;;;;4970288;28;20037;-69
2022/06/27 03:59:09;;;;;;;6.53;3.83;;;19.50;99.90;;;;;;4973203;28;20042;-69
2022/06/27 04:01:35;;;;;;;7.10;4.00;;;19.50;99.90;;;;;;4974166;28;20396;-69
2022/06/27 04:04:02;;;;;;;6.25;4.00;;;19.50;99.90;;;;;;4974054;28;20037;-69
2022/06/27 04:06:29;;;;;;;6.95;4.38;;;19.50;99.90;;;;;;4973797;28;20031;-69
2022/06/27 04:08:55;;;;;;;6.60;4.22;;;19.60;99.90;;;;;;4973664;28;20043;-69
2022/06/27 04:11:21;;;;;;;7.70;4.10;;;19.50;99.90;;;;;;4973748;28;20037;-69
2022/06/27 04:13:51;;;;;;;5.63;4.68;;;19.50;99.90;;;;;;4973785;28;20479;-69
2022/06/27 04:16:51;;;;;;;8.00;4.78;;;19.50;99.90;;;;;;4942069;28;20045;-69
2022/06/27 04:19:20;;;;;;;7.60;4.30;;;19.50;99.90;;;;;;4974880;28;20104;-69
2022/06/27 04:22:18;;;;;;;6.82;4.15;;;19.50;99.90;;;;;;4963068;28;20105;-69
2022/06/27 04:24:57;;;;;;;6.68;4.60;;;19.50;99.90;;;;;;4974974;28;20042;-69
2022/06/27 04:27:39;;;;;;;7.43;4.22;;;19.50;99.90;;;;;;4973436;28;20037;-69
2022/06/27 04:30:07;;;;;;;7.35;4.35;;;19.50;99.90;;;;;;4973438;28;20031;-69
2022/06/27 04:32:33;;;;;;;7.45;4.43;;;19.40;99.90;;;;;;4973368;28;20050;-69
2022/06/27 04:34:59;;;;;;;7.53;4.15;;;19.40;99.90;;;;;;4973486;28;20508;-70
2022/06/27 04:37:26;;;;;;;6.28;4.10;;;19.40;99.90;;;;;;4973306;28;20054;-69
2022/06/27 04:40:19;;;;;;;6.95;4.63;;;19.40;99.90;;;;;;4951772;28;20053;-69
2022/06/27 04:42:48;;;;;;;5.22;4.15;;;19.30;99.90;;;;;;4957250;28;20093;-69
2022/06/27 04:45:15;;;;;;;7.07;4.47;;;19.30;99.90;;;;;;4973417;28;20039;-69
2022/06/27 04:47:47;;;;;;;7.68;4.25;;;19.30;99.90;;;;;;4973022;28;20033;-69
2022/06/27 04:50:18;;;;;;;7.63;4.40;;;19.30;99.90;;;;;;4973016;28;20027;-69
2022/06/27 04:52:47;;;;;;;6.65;4.03;;;19.30;99.90;;;;;;4974500;28;20023;-69
2022/06/27 04:55:13;;;;;;;;;;;19.40;99.90;;;;;;4973642;28;20027;-69
2022/06/27 04:57:42;;;;;;;6.65;3.78;;;19.40;99.90;;;;;;4972833;28;19918;-69
2022/06/27 05:00:11;;;;;;;6.88;4.35;;;19.40;99.90;;;;;;4974033;28;20051;-69
2022/06/27 05:03:16;;;;;;;7.87;4.37;;;19.40;99.90;;;;;;4914557;29;20040;-69
2022/06/27 05:05:50;;;;;;;5.38;4.00;;;19.40;99.90;;;;;;4914223;29;20040;-69
2022/06/27 05:08:16;;;;;;;6.20;4.75;;;19.40;99.90;;;;;;4935873;28;20050;-69
2022/06/27 05:10:45;;;;;;;8.25;4.78;;;19.40;99.90;;;;;;4972152;28;20035;-69
2022/06/27 05:13:11;;;;;;;5.18;3.95;;;19.40;99.90;;;;;;4972697;28;20122;-71
2022/06/27 05:15:37;;;;;;;7.20;3.80;;;19.40;99.90;;;;;;4972702;28;20102;-69
2022/06/27 05:18:04;;;;;;;7.13;4.70;;;19.50;99.90;;;;;;4972590;28;20026;-69
2022/06/27 05:20:30;;;;;;;7.60;4.90;;;19.50;99.90;;;;;;4972545;28;20091;-69
2022/06/27 05:22:57;;;;;;;8.45;4.25;;;19.50;99.90;;;;;;4973776;28;20062;-70
2022/06/27 05:25:23;;;;;;;8.52;4.80;;;19.50;99.90;;;;;;4972737;28;20038;-69
2022/06/27 05:27:49;;;;;;;7.85;4.40;;;19.50;99.90;;;;;;4973572;28;20475;-70
2022/06/27 05:30:15;;;;;;;7.75;4.22;;;19.50;99.90;;;;;;4973726;28;20085;-70
2022/06/27 05:32:42;;;;;;;5.82;4.38;;;19.50;99.90;;;;;;4973741;28;20258;-69
2022/06/27 05:35:08;;;;;;;7.07;4.47;;;19.60;99.90;;;;;;4972267;28;20027;-69
2022/06/27 05:37:35;;;;;;;7.20;4.70;;;19.60;99.90;;;;;;4972208;28;20027;-69
2022/06/27 05:40:03;;;;;;;8.32;5.00;;;19.60;99.90;;;;;;4972205;28;20027;-69
2022/06/27 05:42:29;;;;;;;7.40;5.25;;;19.60;99.90;;;;;;4972397;28;20030;-69
2022/06/27 05:44:55;;;;;;;7.65;5.13;;;19.60;99.90;;;;;;4972044;28;20042;-70
2022/06/27 05:47:22;;;;;;;10.55;6.38;;;19.70;99.90;;;;;;4971877;28;20030;-70
2022/06/27 05:49:59;;;;;;;10.80;6.10;;;19.70;99.90;;;;;;4957168;28;20361;-69
2022/06/27 05:52:25;;;;;;;8.60;5.28;;;19.70;99.90;;;;;;4971953;28;20046;-69
2022/06/27 05:54:52;;;;;;;9.27;5.78;;;19.70;99.90;;;;;;4972035;28;20395;-69
2022/06/27 05:57:19;;;;;;;10.43;6.30;;;19.80;99.90;;;;;;4971758;28;20030;-69
2022/06/27 05:59:46;;;;;;;9.45;5.60;;;19.80;99.90;;;;;;4971533;28;20483;-69
2022/06/27 06:02:12;;;;;;;9.50;6.15;;;19.80;99.90;;;;;;4971718;28;20042;-69
2022/06/27 06:04:39;;;;;;;9.50;5.80;;;19.80;99.90;;;;;;4971751;28;20039;-69
2022/06/27 06:07:08;;;;;;;8.35;5.32;;;19.70;99.90;;;;;;4971494;28;20558;-70
2022/06/27 06:09:34;;;;;;;6.97;4.70;;;19.70;99.90;;;;;;4971491;28;20043;-70
2022/06/27 06:12:00;;;;;;;7.97;5.50;;;19.70;99.90;;;;;;4971660;28;20045;-69
2022/06/27 06:14:32;;;;;;;9.88;5.43;;;19.60;99.90;;;;;;4971672;28;20309;-71
2022/06/27 06:16:58;;;;;;;7.72;5.30;;;19.60;99.90;;;;;;4971434;28;20037;-70
2022/06/27 06:19:24;;;;;;;9.07;5.50;;;19.60;99.90;;;;;;4971461;28;20035;-70
2022/06/27 06:21:50;;;;;;;8.43;5.50;;;19.60;99.90;;;;;;4970479;28;20034;-70
2022/06/27 06:24:16;;;;;;;9.27;5.53;;;19.60;99.90;;;;;;4971468;28;20491;-71
2022/06/27 06:26:45;;;;;;;7.93;4.80;;;19.60;99.90;;;;;;4971216;28;20058;-69
2022/06/27 06:29:15;;;;;;;;;;;19.60;99.90;;;;;;4955548;28;20031;-69
2022/06/27 06:31:54;;;;;;;8.43;5.38;;;19.60;99.90;;;;;;4971309;28;20012;-70
2022/06/27 06:34:21;;;;;;;8.43;5.20;;;19.70;99.90;;;;;;4971377;28;20033;-69
2022/06/27 06:36:47;;;;;;;9.13;5.35;;;19.70;99.90;;;;;;4971138;28;20399;-69
2022/06/27 06:39:13;;;;;;;8.60;5.13;;;19.70;99.90;;;;;;4971037;28;20031;-69
2022/06/27 06:41:40;;;;;;;7.97;4.90;;;19.70;99.90;;;;;;4971130;28;20122;-69
2022/06/27 06:44:06;;;;;;;7.72;4.93;;;19.80;99.90;;;;;;4971153;28;20027;-70
2022/06/27 06:46:55;;;;;;;7.90;5.10;;;19.80;99.90;;;;;;4972442;28;20110;-69
2022/06/27 06:49:39;;;;;;;6.32;4.78;;;19.80;99.90;;;;;;4971023;28;20055;-69
2022/06/27 06:52:05;;;;;;;6.60;4.50;;;19.80;99.90;;;;;;4972277;28;20041;-69
2022/06/27 06:54:32;;;;;;;7.40;4.78;;;19.80;99.90;;;;;;4972438;28;20435;-70
2022/06/27 06:56:58;;;;;;;6.70;5.32;;;19.80;99.90;;;;;;4970943;28;20031;-70
2022/06/27 06:59:27;;;;;;;8.70;5.20;;;19.80;99.90;;;;;;4972325;28;20081;-69
2022/06/27 07:01:53;;;;;;;7.32;5.20;;;19.80;99.90;;;;;;4972150;28;20480;-67
2022/06/27 07:04:20;;;;;;;9.00;5.20;;;19.80;99.90;;;;;;4972121;28;20039;-68
2022/06/27 07:06:46;;;;;;;10.88;5.85;;;19.80;99.90;;;;;;4972110;28;20034;-67
2022/06/27 07:09:13;;;;;;;12.88;6.60;;;19.80;99.90;;;;;;4971855;28;20042;-70
2022/06/27 07:11:40;;;;;;;9.90;6.80;;;19.90;99.90;;;;;;4972210;28;20042;-70
2022/06/27 07:14:06;;;;;;;10.80;6.13;;;19.90;99.90;;;;;;4972087;28;20059;-67
2022/06/27 07:16:32;;;;;;;10.35;5.78;;;19.90;99.90;;;;;;4970770;28;20121;-69
2022/06/27 07:19:02;;;;;;;8.18;5.35;;;20.00;99.90;;;;;;4971922;28;20026;-69
2022/06/27 07:21:31;;;;;;;11.75;7.82;;;20.10;99.90;;;;;;4970593;28;20030;-69
2022/06/27 07:24:00;;;;;;;10.02;6.32;;;20.20;99.90;;;;;;4971607;28;20030;-69
2022/06/27 07:26:27;;;;;;;7.95;5.25;;;20.20;99.90;;;;;;4971532;28;20042;-69
2022/06/27 07:28:53;;;;;;;12.25;6.53;;;20.30;99.90;;;;;;4971271;28;20034;-69
2022/06/27 07:31:20;;;;;;;17.35;6.93;;;20.30;99.90;;;;;;4971453;28;20027;-70
2022/06/27 07:33:51;;;;;;;9.63;6.22;;;20.30;99.90;;;;;;4974171;28;20109;-69
2022/06/27 07:36:20;;;;;;;8.50;6.00;;;20.30;99.90;;;;;;4975333;28;20050;-69
2022/06/27 07:38:49;;;;;;;6.90;4.90;;;20.30;99.90;;;;;;4975734;28;20081;-69
2022/06/27 07:41:19;;;;;;;10.63;5.57;;;20.20;99.90;;;;;;4975810;28;20022;-69
2022/06/27 07:43:49;;;;;;;10.80;5.43;;;20.30;99.90;;;;;;4975770;28;20030;-69
2022/06/27 07:46:17;;;;;;;7.13;4.18;;;20.30;99.90;;;;;;4975461;28;20062;-69
2022/06/27 07:48:44;;;;;;;7.95;4.93;;;20.30;99.90;;;;;;4975271;28;20480;-69
2022/06/27 07:51:16;;;;;;;7.43;4.75;;;20.30;99.90;;;;;;4975398;28;20065;-69
2022/06/27 07:53:46;;;;;;;6.15;5.00;;;20.30;99.90;;;;;;4975693;28;20439;-68
2022/06/27 07:56:14;;;;;;;7.80;5.30;;;20.30;99.90;;;;;;4975426;28;20056;-68
2022/06/27 07:58:40;;;;;;;8.77;6.10;;;20.30;99.90;;;;;;4975122;28;20480;-69
2022/06/27 08:01:08;;;;;;;9.52;7.38;;;20.40;99.90;;;;;;4975452;28;20054;-69
2022/06/27 08:03:44;;;;;;;8.32;6.43;;;20.40;99.90;;;;;;4975282;28;20030;-69
2022/06/27 08:06:31;;;;;;;8.75;6.72;;;20.30;99.90;;;;;;4975142;28;20093;-69
2022/06/27 08:09:15;;;;;;;9.50;5.70;;;20.40;99.90;;;;;;4974782;28;20042;-68
2022/06/27 08:11:42;;;;;;;11.40;7.32;;;20.40;99.90;;;;;;4973889;28;20035;-69
2022/06/27 08:14:12;;;;;;;10.15;6.47;;;20.40;99.90;;;;;;4975167;28;20042;-69
2022/06/27 08:16:40;;;;;;;7.20;5.93;;;20.30;99.90;;;;;;4974793;28;20031;-69
2022/06/27 08:19:08;;;;;;;7.93;5.95;;;20.30;99.90;;;;;;4974753;28;20034;-70
2022/06/27 08:21:35;;;;;;;8.50;6.75;;;20.30;99.90;;;;;;4974780;28;20054;-69
2022/06/27 08:24:07;;;;;;;9.02;7.13;;;20.30;99.90;;;;;;4974858;28;20085;-69
2022/06/27 08:26:35;;;;;;;9.10;6.18;;;20.20;99.90;;;;;;4974750;28;20061;-69
2022/06/27 08:29:02;;;;;;;7.80;6.37;;;20.20;99.90;;;;;;4973361;28;20031;-68
2022/06/27 08:31:30;;;;;;;;;;;20.10;99.90;;;;;;4975506;28;20054;-69
2022/06/27 08:34:03;;;;;;;7.25;6.32;;;20.10;99.90;;;;;;4974745;28;19910;-70
2022/06/27 08:36:31;;;;;;;10.43;7.97;;;20.10;99.90;;;;;;4973733;28;20038;-69
2022/06/27 08:39:02;;;;;;;9.70;7.82;;;20.10;99.90;;;;;;4974710;28;20102;-69
2022/06/27 08:41:28;;;;;;;8.65;7.40;;;20.10;99.90;;;;;;4974752;28;20498;-69
2022/06/27 08:43:58;;;;;;;8.68;7.35;;;20.10;99.90;;;;;;4973980;28;20034;-69
2022/06/27 08:46:24;;;;;;;9.30;6.97;;;20.00;99.90;;;;;;4974257;28;20392;-69
2022/06/27 08:48:50;;;;;;;8.68;7.10;;;20.00;99.90;;;;;;4974103;28;20039;-69
2022/06/27 08:51:18;;;;;;;8.38;7.45;;;20.00;99.90;;;;;;4973082;28;20038;-70
2022/06/27 08:53:45;;;;;;;7.70;6.90;;;20.00;99.90;;;;;;4973173;28;20042;-71
2022/06/27 08:56:15;;;;;;;9.85;7.32;;;19.90;99.90;;;;;;4974190;28;20735;-70
2022/06/27 08:58:46;;;;;;;7.75;6.43;;;19.90;99.90;;;;;;4974076;28;20026;-68
2022/06/27 09:01:19;;;;;;;8.60;6.57;;;20.00;99.90;;;;;;4974154;28;20027;-69
2022/06/27 09:04:00;;;;;;;9.18;7.15;;;20.00;99.90;;;;;;4974199;28;20146;-69
2022/06/27 09:06:30;;;;;;;9.27;7.75;;;20.00;99.90;;;;;;4974096;28;20468;-69
2022/06/27 09:09:07;;;;;;;9.60;7.57;;;20.00;99.90;;;;;;4973938;28;20022;-69
2022/06/27 09:11:37;;;;;;;7.65;6.70;;;20.00;99.90;;;;;;4973959;28;20563;-68
2022/06/27 09:14:05;;;;;;;8.50;7.60;;;20.10;99.90;;;;;;4973982;28;20027;-68
2022/06/27 09:16:32;;;;;;;8.67;7.60;;;20.10;99.90;;;;;;4973849;28;20100;-69
2022/06/27 09:18:59;;;;;;;8.98;8.07;;;20.10;99.90;;;;;;4973664;28;20643;-69
2022/06/27 09:21:27;;;;;;;8.73;7.45;;;20.10;99.90;;;;;;4973828;28;20165;-69
2022/06/27 09:23:55;;;;;;;8.93;6.90;;;20.10;99.90;;;;;;4971934;23;20412;-68
2022/06/27 09:26:34;;;;;;;7.60;6.67;;;20.20;99.90;;;;;;4951996;29;20062;-68
2022/06/27 09:29:01;;;;;;;10.13;7.40;;;20.20;99.90;;;;;;4953413;28;20027;-68
2022/06/27 09:31:33;;;;;;;8.70;7.72;;;20.20;99.90;;;;;;4953219;29;20035;-68
2022/06/27 09:34:26;;;;;;;8.52;7.63;;;20.20;99.90;;;;;;4953373;29;20049;-68
2022/06/27 09:36:58;;;;;;;8.68;7.13;;;20.30;99.90;;;;;;4953084;29;20023;-68
2022/06/27 09:39:35;;;;;;;9.10;7.32;;;20.30;99.90;;;;;;4953892;28;20175;-68
2022/06/27 09:42:06;;;;;;;9.52;8.32;;;20.30;99.90;;;;;;4954300;29;20339;-68
2022/06/27 09:44:38;;;;;;;9.15;6.90;;;20.40;99.90;;;;;;4954059;29;20039;-68
2022/06/27 09:47:06;;;;;;;11.00;7.38;;;20.40;99.90;;;;;;4953880;29;20054;-68
2022/06/27 09:49:34;;;;;;;8.88;7.90;;;20.50;99.90;;;;;;4952368;28;20027;-68
2022/06/27 09:52:04;;;;;;;9.55;7.70;;;20.50;99.90;;;;;;4952661;29;20071;-69
2022/06/27 09:54:33;;;;;;;9.25;8.02;;;20.60;99.90;;;;;;4954045;29;20039;-68
2022/06/27 09:57:00;;;;;;;11.18;8.88;;;20.60;99.90;;;;;;4953682;28;20131;-69
2022/06/27 09:59:27;;;;;;;12.15;8.30;;;20.70;99.90;;;;;;4953641;28;20062;-68
2022/06/27 10:01:57;;;;;;;12.73;9.63;;;20.70;99.90;;;;;;4953715;29;20063;-69
2022/06/27 10:04:28;;;;;;;12.13;9.70;;;20.70;99.90;;;;;;4953849;29;20125;-68
2022/06/27 10:06:58;;;;;;;15.63;10.75;;;20.80;99.90;;;;;;4953565;29;20027;-68
2022/06/27 10:09:25;;;;;;;13.60;9.48;;;20.90;99.90;;;;;;4953724;28;20031;-68
2022/06/27 10:12:21;;;;;;;11.32;8.20;;;20.80;99.90;;;;;;4953583;29;20054;-69
2022/06/27 10:15:10;;;;;;;11.60;7.88;;;20.90;99.90;;;;;;4952403;29;20204;-68
2022/06/27 10:17:43;;;;;;;13.23;9.50;;;20.90;99.90;;;;;;4953528;28;20038;-68
2022/06/27 10:20:21;;;;;;;14.48;8.73;;;20.90;99.90;;;;;;4953330;29;20023;-68
2022/06/27 10:23:06;;;;;;;10.77;8.27;;;20.90;99.90;;;;;;4953507;29;20035;-69
2022/06/27 10:25:33;;;;;;;12.15;8.25;;;20.90;99.90;;;;;;4953618;29;20496;-69
2022/06/27 10:28:08;;;;;;;10.52;7.25;;;20.90;99.90;;;;;;4953534;28;20039;-68
2022/06/27 10:30:39;;;;;;;13.50;7.85;;;20.80;99.90;;;;;;4952017;29;20059;-68
2022/06/27 10:33:24;;;;;;;10.25;6.53;;;20.90;99.90;;;;;;4953240;29;20400;-68
2022/06/27 10:36:11;;;;;;;8.13;6.22;;;20.80;99.90;;;;;;4953219;29;20027;-68
2022/06/27 10:38:40;;;;;;;8.43;6.03;;;20.80;99.90;;;;;;4952942;28;20548;-68
2022/06/27 10:41:06;;;;;;;8.48;5.90;;;20.80;99.90;;;;;;4953334;28;20035;-68
2022/06/27 10:43:36;;;;;;;9.13;5.57;;;20.80;99.90;;;;;;4953616;29;20039;-67
2022/06/27 10:46:11;;;;;;;8.32;5.65;;;20.80;99.90;;;;;;4953186;29;20027;-69
2022/06/27 10:48:42;;;;;;;7.60;4.80;;;20.80;99.90;;;;;;4952867;28;20027;-67
2022/06/27 10:51:26;;;;;;;7.68;5.50;;;20.80;99.90;;;;;;4953054;29;20118;-68
2022/06/27 10:54:10;;;;;;;8.50;5.10;;;20.80;99.90;;;;;;4952929;29;20029;-68
2022/06/27 10:56:41;;;;;;;5.05;4.00;;;20.70;99.90;;;;;;4952957;29;20456;-68
2022/06/27 10:59:13;;;;;;;7.40;4.95;;;20.70;99.90;;;;;;4952824;28;20031;-68
2022/06/27 11:01:42;;;;;;;7.47;5.28;;;20.70;99.90;;;;;;4952896;29;20042;-68
2022/06/27 11:04:29;;;;;;;5.63;4.30;;;20.70;99.90;;;;;;4953107;29;20078;-68
2022/06/27 11:06:59;;;;;;;7.47;4.88;;;20.60;99.90;;;;;;4952556;29;20023;-68
2022/06/27 11:09:38;;;;;;;7.82;5.00;;;20.60;99.90;;;;;;4951630;28;20452;-68
2022/06/27 11:12:06;;;;;;;5.50;4.57;;;20.60;99.90;;;;;;4951559;29;20268;-68
2022/06/27 11:14:51;;;;;;;7.03;5.30;;;20.60;99.90;;;;;;4952880;29;20333;-68
2022/06/27 11:17:32;;;;;;;9.48;6.70;;;20.60;99.90;;;;;;4952778;28;20102;-68
2022/06/27 11:20:20;;;;;;;8.23;6.25;;;20.60;99.90;;;;;;4952790;29;20031;-68
2022/06/27 11:22:51;;;;;;;7.82;6.32;;;20.70;99.90;;;;;;4952778;28;20040;-68
2022/06/27 11:25:20;;;;;;;10.50;5.78;;;20.70;99.90;;;;;;4953178;29;20031;-68
2022/06/27 11:27:58;;;;;;;9.07;5.95;;;20.70;99.90;;;;;;4951318;28;20492;-68
2022/06/27 11:33:27;;;;;;;;;;;20.70;99.90;;;;;;4953111;28;20031;-68
2022/06/27 11:35:54;;;;;;;10.82;7.22;;;20.70;99.90;;;;;;4952560;28;19911;-68
2022/06/27 11:38:31;;;;;;;7.22;5.57;;;20.70;99.90;;;;;;4952489;28;20063;-68
2022/06/27 11:41:10;;;;;;;7.43;5.78;;;20.80;99.90;;;;;;4952612;29;20027;-68
2022/06/27 11:44:04;;;;;;;5.97;4.43;;;20.80;99.90;;;;;;4952700;29;20068;-68
2022/06/27 11:46:51;;;;;;;6.80;5.18;;;20.80;99.90;;;;;;4952516;29;20381;-68
2022/06/27 11:49:34;;;;;;;6.90;4.88;;;20.80;99.90;;;;;;4952344;28;20031;-68
2022/06/27 11:52:10;;;;;;;6.60;5.05;;;20.80;99.90;;;;;;4952361;29;20032;-68
2022/06/27 11:54:39;;;;;;;7.80;5.60;;;20.80;99.90;;;;;;4952531;28;20039;-68
2022/06/27 11:57:23;;;;;;;7.97;5.93;;;20.80;99.90;;;;;;4952741;29;20102;-68
2022/06/27 11:59:50;;;;;;;9.02;5.60;;;20.80;99.90;;;;;;4952248;29;20036;-68
2022/06/27 12:02:34;;;;;;;8.65;6.32;;;20.90;99.90;;;;;;4952348;29;20036;-68
2022/06/27 12:05:07;;;;;;;10.30;6.53;;;20.90;99.90;;;;;;4952473;29;20039;-68
2022/06/27 12:08:07;;;;;;;9.52;6.03;;;21.00;99.90;;;;;;4952155;28;20046;-68
2022/06/27 12:10:44;;;;;;;9.82;6.80;;;21.10;99.90;;;;;;4952166;28;20035;-68
2022/06/27 12:13:12;;;;;;;10.02;6.05;;;21.20;99.90;;;;;;4952144;29;20034;-68
2022/06/27 12:15:40;;;;;;;;;;;21.20;99.90;;;;;;4952606;29;20035;-67
2022/06/27 12:18:06;;;;;;;10.00;5.53;;;21.30;99.90;;;;;;4952363;28;19917;-68
2022/06/27 12:20:34;;;;;;;11.52;7.32;;;21.30;99.90;;;;;;4953940;29;20400;-68
2022/06/27 12:23:01;;;;;;;11.00;7.25;;;21.30;99.90;;;;;;4955520;29;20027;-68
2022/06/27 12:25:28;;;;;;;12.70;9.18;;;21.40;99.90;;;;;;4955598;29;20027;-68
2022/06/27 12:27:54;;;;;;;13.88;8.50;;;21.30;99.90;;;;;;4955380;28;20042;-68
2022/06/27 12:30:20;;;;;;;11.07;7.95;;;21.30;99.80;;;;;;4955147;29;20392;-68
2022/06/27 12:32:45;;;;;;;13.57;7.90;;;21.30;99.90;;;;;;4955322;29;20355;-68
2022/06/27 12:35:12;;;;;;;10.07;7.15;;;21.30;99.90;;;;;;4955483;29;20097;-68
2022/06/27 12:37:38;;;;;;;12.00;7.32;;;21.30;99.90;;;;;;4955276;28;20093;-68
2022/06/27 12:40:06;;;;;;;12.75;6.97;;;21.30;99.90;;;;;;4955230;29;20077;-68
2022/06/27 12:42:33;;;;;;;13.37;7.60;;;21.30;99.90;;;;;;4955249;29;20049;-68
2022/06/27 12:44:59;;;;;;;10.93;6.82;;;21.40;99.90;;;;;;4955427;29;20815;-68
2022/06/27 12:47:26;;;;;;;15.40;9.02;;;21.40;99.90;;;;;;4955214;28;20031;-67
2022/06/27 12:49:52;;;;;;;16.17;10.48;;;21.50;99.50;;;;;;4954991;29;20094;-68
2022/06/27 12:52:18;;;;;;;16.92;9.05;;;21.50;99.20;;;;;;4955016;29;20031;-68
2022/06/27 12:54:44;;;;;;;14.40;8.35;;;21.60;99.00;;;;;;4955135;29;20397;-68
2022/06/27 12:57:13;;;;;;;13.10;8.27;;;21.70;99.10;;;;;;4955060;29;20027;-68
2022/06/27 12:59:43;;;;;;;13.95;10.13;;;21.70;99.20;;;;;;4954813;29;20031;-68
2022/06/27 13:02:10;;;;;;;11.20;8.50;;;21.70;99.30;;;;;;4955088;28;20504;-68
2022/06/27 13:04:36;;;;;;;13.63;8.50;;;21.70;99.60;;;;;;4954799;29;20023;-68
2022/06/27 13:07:02;;;;;;;15.80;11.90;;;21.80;99.70;;;;;;4955132;29;20095;-68
2022/06/27 13:09:28;;;;;;;16.52;13.00;;;21.80;99.70;;;;;;4953376;28;20118;-68